sensor_id;sensor_type;location;lat;lon;timestamp;P1;durP1;ratioP1;P2;durP2;ratioP2
41219;SDS011;26951;47.338;9.196;2023-12-14T00:02:28;0.40;;;0.40;;
41219;SDS011;26951;47.338;9.196;2023-12-14T00:05:12;1.35;;;0.60;;
41219;SDS011;26951;47.338;9.196;2023-12-14T00:07:57;0.70;;;0.70;;
41219;SDS011;26951;47.338;9.196;2023-12-14T00:10:41;1.67;;;1.55;;
41219;SDS011;26951;47.338;9.196;2023-12-14T00:13:25;1.25;;;1.15;;
41219;SDS011;26951;47.338;9.196;2023-12-14T00:16:09;1.08;;;0.98;;
41219;SDS011;26951;47.338;9.196;2023-12-14T00:18:54;0.95;;;0.88;;
41219;SDS011;26951;47.338;9.196;2023-12-14T00:21:38;0.82;;;0.80;;
41219;SDS011;26951;47.338;9.196;2023-12-14T00:24:22;0.70;;;0.70;;
41219;SDS011;26951;47.338;9.196;2023-12-14T00:27:06;0.90;;;0.70;;
41219;SDS011;26951;47.338;9.196;2023-12-14T00:29:50;0.70;;;0.70;;
41219;SDS011;26951;47.338;9.196;2023-12-14T00:32:34;0.70;;;0.70;;
41219;SDS011;26951;47.338;9.196;2023-12-14T00:35:18;0.50;;;0.50;;
41219;SDS011;26951;47.338;9.196;2023-12-14T00:38:03;0.70;;;0.70;;
41219;SDS011;26951;47.338;9.196;2023-12-14T00:40:47;1.00;;;0.90;;
41219;SDS011;26951;47.338;9.196;2023-12-14T00:43:31;0.73;;;0.73;;
41219;SDS011;26951;47.338;9.196;2023-12-14T00:46:15;1.02;;;0.70;;
41219;SDS011;26951;47.338;9.196;2023-12-14T00:48:59;0.65;;;0.65;;
41219;SDS011;26951;47.338;9.196;2023-12-14T00:51:45;0.50;;;0.50;;
41219;SDS011;26951;47.338;9.196;2023-12-14T00:54:30;0.70;;;0.70;;
41219;SDS011;26951;47.338;9.196;2023-12-14T00:57:14;0.88;;;0.70;;
41219;SDS011;26951;47.338;9.196;2023-12-14T00:59:58;0.95;;;0.68;;
41219;SDS011;26951;47.338;9.196;2023-12-14T01:02:42;0.68;;;0.60;;
41219;SDS011;26951;47.338;9.196;2023-12-14T01:05:26;0.50;;;0.50;;
41219;SDS011;26951;47.338;9.196;2023-12-14T01:08:10;0.52;;;0.52;;
41219;SDS011;26951;47.338;9.196;2023-12-14T01:10:54;0.40;;;0.40;;
41219;SDS011;26951;47.338;9.196;2023-12-14T01:13:38;0.57;;;0.57;;
41219;SDS011;26951;47.338;9.196;2023-12-14T01:16:25;0.45;;;0.40;;
41219;SDS011;26951;47.338;9.196;2023-12-14T01:19:09;0.40;;;0.40;;
41219;SDS011;26951;47.338;9.196;2023-12-14T01:21:54;0.52;;;0.52;;
41219;SDS011;26951;47.338;9.196;2023-12-14T01:24:39;0.40;;;0.40;;
41219;SDS011;26951;47.338;9.196;2023-12-14T01:27:23;0.40;;;0.40;;
41219;SDS011;26951;47.338;9.196;2023-12-14T01:30:07;0.30;;;0.30;;
41219;SDS011;26951;47.338;9.196;2023-12-14T01:32:51;0.40;;;0.40;;
41219;SDS011;26951;47.338;9.196;2023-12-14T01:35:35;0.30;;;0.30;;
41219;SDS011;26951;47.338;9.196;2023-12-14T01:38:20;0.35;;;0.32;;
41219;SDS011;26951;47.338;9.196;2023-12-14T01:41:04;0.50;;;0.50;;
41219;SDS011;26951;47.338;9.196;2023-12-14T01:43:48;0.55;;;0.30;;
41219;SDS011;26951;47.338;9.196;2023-12-14T01:46:32;0.60;;;0.35;;
41219;SDS011;26951;47.338;9.196;2023-12-14T01:49:16;0.40;;;0.40;;
41219;SDS011;26951;47.338;9.196;2023-12-14T01:52:00;0.30;;;0.20;;
41219;SDS011;26951;47.338;9.196;2023-12-14T01:54:45;0.20;;;0.20;;
41219;SDS011;26951;47.338;9.196;2023-12-14T01:57:29;0.30;;;0.30;;
41219;SDS011;26951;47.338;9.196;2023-12-14T02:00:15;0.52;;;0.45;;
41219;SDS011;26951;47.338;9.196;2023-12-14T02:03:57;0.22;;;0.22;;
41219;SDS011;26951;47.338;9.196;2023-12-14T02:06:41;0.47;;;0.35;;
41219;SDS011;26951;47.338;9.196;2023-12-14T02:09:26;0.38;;;0.38;;
41219;SDS011;26951;47.338;9.196;2023-12-14T02:12:10;0.35;;;0.30;;
41219;SDS011;26951;47.338;9.196;2023-12-14T02:14:56;0.47;;;0.47;;
41219;SDS011;26951;47.338;9.196;2023-12-14T02:17:40;0.30;;;0.30;;
41219;SDS011;26951;47.338;9.196;2023-12-14T02:20:24;0.40;;;0.40;;
41219;SDS011;26951;47.338;9.196;2023-12-14T02:23:08;0.40;;;0.40;;
41219;SDS011;26951;47.338;9.196;2023-12-14T02:25:52;0.43;;;0.40;;
41219;SDS011;26951;47.338;9.196;2023-12-14T02:28:36;0.30;;;0.30;;
41219;SDS011;26951;47.338;9.196;2023-12-14T02:31:21;0.40;;;0.40;;
41219;SDS011;26951;47.338;9.196;2023-12-14T02:34:06;0.30;;;0.30;;
41219;SDS011;26951;47.338;9.196;2023-12-14T02:36:50;0.30;;;0.30;;
41219;SDS011;26951;47.338;9.196;2023-12-14T02:39:34;0.30;;;0.30;;
41219;SDS011;26951;47.338;9.196;2023-12-14T02:42:18;0.50;;;0.50;;
41219;SDS011;26951;47.338;9.196;2023-12-14T02:45:03;0.20;;;0.20;;
41219;SDS011;26951;47.338;9.196;2023-12-14T02:47:47;0.30;;;0.30;;
41219;SDS011;26951;47.338;9.196;2023-12-14T02:50:33;0.38;;;0.32;;
41219;SDS011;26951;47.338;9.196;2023-12-14T02:53:17;0.30;;;0.30;;
41219;SDS011;26951;47.338;9.196;2023-12-14T02:56:01;0.30;;;0.30;;
41219;SDS011;26951;47.338;9.196;2023-12-14T02:58:45;0.85;;;0.65;;
41219;SDS011;26951;47.338;9.196;2023-12-14T03:01:34;1.08;;;0.40;;
41219;SDS011;26951;47.338;9.196;2023-12-14T03:04:19;0.30;;;0.30;;
41219;SDS011;26951;47.338;9.196;2023-12-14T03:07:03;0.45;;;0.45;;
41219;SDS011;26951;47.338;9.196;2023-12-14T03:09:47;0.70;;;0.40;;
41219;SDS011;26951;47.338;9.196;2023-12-14T03:12:31;0.40;;;0.38;;
41219;SDS011;26951;47.338;9.196;2023-12-14T03:15:17;0.60;;;0.60;;
41219;SDS011;26951;47.338;9.196;2023-12-14T03:18:02;0.50;;;0.50;;
41219;SDS011;26951;47.338;9.196;2023-12-14T03:20:47;0.80;;;0.80;;
41219;SDS011;26951;47.338;9.196;2023-12-14T03:23:31;0.55;;;0.55;;
41219;SDS011;26951;47.338;9.196;2023-12-14T03:26:16;0.80;;;0.80;;
41219;SDS011;26951;47.338;9.196;2023-12-14T03:29:00;0.95;;;0.80;;
41219;SDS011;26951;47.338;9.196;2023-12-14T03:31:44;1.08;;;1.02;;
41219;SDS011;26951;47.338;9.196;2023-12-14T03:34:28;0.82;;;0.82;;
41219;SDS011;26951;47.338;9.196;2023-12-14T03:37:12;0.80;;;0.75;;
41219;SDS011;26951;47.338;9.196;2023-12-14T03:39:57;1.02;;;1.00;;
41219;SDS011;26951;47.338;9.196;2023-12-14T03:42:41;0.75;;;0.75;;
41219;SDS011;26951;47.338;9.196;2023-12-14T03:45:25;0.75;;;0.75;;
41219;SDS011;26951;47.338;9.196;2023-12-14T03:48:09;0.60;;;0.60;;
41219;SDS011;26951;47.338;9.196;2023-12-14T03:50:53;0.68;;;0.68;;
41219;SDS011;26951;47.338;9.196;2023-12-14T03:53:37;0.98;;;0.80;;
41219;SDS011;26951;47.338;9.196;2023-12-14T03:56:21;0.60;;;0.60;;
41219;SDS011;26951;47.338;9.196;2023-12-14T03:59:05;1.05;;;0.95;;
41219;SDS011;26951;47.338;9.196;2023-12-14T04:01:50;0.77;;;0.73;;
41219;SDS011;26951;47.338;9.196;2023-12-14T04:04:34;0.60;;;0.60;;
41219;SDS011;26951;47.338;9.196;2023-12-14T04:07:19;0.70;;;0.70;;
41219;SDS011;26951;47.338;9.196;2023-12-14T04:10:03;1.45;;;0.80;;
41219;SDS011;26951;47.338;9.196;2023-12-14T04:12:47;0.80;;;0.80;;
41219;SDS011;26951;47.338;9.196;2023-12-14T04:15:32;1.15;;;0.65;;
41219;SDS011;26951;47.338;9.196;2023-12-14T04:18:16;0.70;;;0.70;;
41219;SDS011;26951;47.338;9.196;2023-12-14T04:21:00;0.90;;;0.90;;
41219;SDS011;26951;47.338;9.196;2023-12-14T04:23:44;1.60;;;0.85;;
41219;SDS011;26951;47.338;9.196;2023-12-14T04:26:29;0.73;;;0.73;;
41219;SDS011;26951;47.338;9.196;2023-12-14T04:29:13;1.40;;;1.10;;
41219;SDS011;26951;47.338;9.196;2023-12-14T04:31:57;0.88;;;0.88;;
41219;SDS011;26951;47.338;9.196;2023-12-14T04:34:41;0.77;;;0.70;;
41219;SDS011;26951;47.338;9.196;2023-12-14T04:37:26;0.57;;;0.57;;
41219;SDS011;26951;47.338;9.196;2023-12-14T04:40:10;0.70;;;0.70;;
41219;SDS011;26951;47.338;9.196;2023-12-14T04:42:55;0.77;;;0.77;;
41219;SDS011;26951;47.338;9.196;2023-12-14T04:45:39;0.82;;;0.82;;
41219;SDS011;26951;47.338;9.196;2023-12-14T04:48:23;0.63;;;0.63;;
41219;SDS011;26951;47.338;9.196;2023-12-14T04:51:10;0.70;;;0.70;;
41219;SDS011;26951;47.338;9.196;2023-12-14T04:53:55;0.90;;;0.90;;
41219;SDS011;26951;47.338;9.196;2023-12-14T04:56:39;1.08;;;0.90;;
41219;SDS011;26951;47.338;9.196;2023-12-14T05:02:09;0.80;;;0.80;;
41219;SDS011;26951;47.338;9.196;2023-12-14T05:04:53;1.13;;;1.00;;
41219;SDS011;26951;47.338;9.196;2023-12-14T05:07:38;0.80;;;0.80;;
41219;SDS011;26951;47.338;9.196;2023-12-14T05:10:22;0.98;;;0.90;;
41219;SDS011;26951;47.338;9.196;2023-12-14T05:13:06;1.20;;;1.10;;
41219;SDS011;26951;47.338;9.196;2023-12-14T05:15:50;0.88;;;0.88;;
41219;SDS011;26951;47.338;9.196;2023-12-14T05:18:35;1.60;;;1.13;;
41219;SDS011;26951;47.338;9.196;2023-12-14T05:21:19;1.13;;;1.02;;
41219;SDS011;26951;47.338;9.196;2023-12-14T05:24:03;1.17;;;1.08;;
41219;SDS011;26951;47.338;9.196;2023-12-14T05:26:48;2.22;;;1.20;;
41219;SDS011;26951;47.338;9.196;2023-12-14T05:29:33;1.50;;;1.35;;
41219;SDS011;26951;47.338;9.196;2023-12-14T05:32:18;1.98;;;1.67;;
41219;SDS011;26951;47.338;9.196;2023-12-14T05:35:02;2.15;;;1.77;;
41219;SDS011;26951;47.338;9.196;2023-12-14T05:37:46;3.47;;;1.77;;
41219;SDS011;26951;47.338;9.196;2023-12-14T05:40:31;2.20;;;1.85;;
41219;SDS011;26951;47.338;9.196;2023-12-14T05:43:15;2.28;;;1.90;;
41219;SDS011;26951;47.338;9.196;2023-12-14T05:45:59;2.13;;;1.67;;
41219;SDS011;26951;47.338;9.196;2023-12-14T05:48:44;2.42;;;1.60;;
41219;SDS011;26951;47.338;9.196;2023-12-14T05:51:31;1.67;;;1.58;;
41219;SDS011;26951;47.338;9.196;2023-12-14T05:54:16;1.73;;;1.60;;
41219;SDS011;26951;47.338;9.196;2023-12-14T05:57:00;2.03;;;1.77;;
41219;SDS011;26951;47.338;9.196;2023-12-14T05:59:44;2.38;;;1.65;;
41219;SDS011;26951;47.338;9.196;2023-12-14T06:02:28;1.67;;;1.40;;
41219;SDS011;26951;47.338;9.196;2023-12-14T06:05:12;1.30;;;1.20;;
41219;SDS011;26951;47.338;9.196;2023-12-14T06:07:57;2.53;;;2.00;;
41219;SDS011;26951;47.338;9.196;2023-12-14T06:10:41;2.20;;;1.70;;
41219;SDS011;26951;47.338;9.196;2023-12-14T06:13:25;2.30;;;2.10;;
41219;SDS011;26951;47.338;9.196;2023-12-14T06:16:09;1.88;;;1.73;;
41219;SDS011;26951;47.338;9.196;2023-12-14T06:18:56;2.90;;;2.63;;
41219;SDS011;26951;47.338;9.196;2023-12-14T06:21:40;3.03;;;2.47;;
41219;SDS011;26951;47.338;9.196;2023-12-14T06:24:24;2.42;;;2.22;;
41219;SDS011;26951;47.338;9.196;2023-12-14T06:27:08;3.05;;;2.50;;
41219;SDS011;26951;47.338;9.196;2023-12-14T06:29:52;2.30;;;2.10;;
41219;SDS011;26951;47.338;9.196;2023-12-14T06:32:36;1.27;;;1.17;;
41219;SDS011;26951;47.338;9.196;2023-12-14T06:35:20;2.75;;;2.35;;
41219;SDS011;26951;47.338;9.196;2023-12-14T06:38:05;2.97;;;1.88;;
41219;SDS011;26951;47.338;9.196;2023-12-14T06:40:49;2.55;;;2.35;;
41219;SDS011;26951;47.338;9.196;2023-12-14T06:43:33;2.30;;;2.10;;
41219;SDS011;26951;47.338;9.196;2023-12-14T06:46:18;1.95;;;1.65;;
41219;SDS011;26951;47.338;9.196;2023-12-14T06:49:02;1.50;;;1.27;;
41219;SDS011;26951;47.338;9.196;2023-12-14T06:51:46;1.65;;;1.33;;
41219;SDS011;26951;47.338;9.196;2023-12-14T06:54:30;1.98;;;1.70;;
41219;SDS011;26951;47.338;9.196;2023-12-14T06:57:14;1.52;;;1.42;;
41219;SDS011;26951;47.338;9.196;2023-12-14T06:59:59;1.83;;;1.60;;
41219;SDS011;26951;47.338;9.196;2023-12-14T07:02:43;2.30;;;2.10;;
41219;SDS011;26951;47.338;9.196;2023-12-14T07:05:27;1.65;;;1.55;;
41219;SDS011;26951;47.338;9.196;2023-12-14T07:08:11;1.45;;;1.00;;
41219;SDS011;26951;47.338;9.196;2023-12-14T07:10:55;2.08;;;0.88;;
41219;SDS011;26951;47.338;9.196;2023-12-14T07:13:39;1.08;;;1.02;;
41219;SDS011;26951;47.338;9.196;2023-12-14T07:16:24;0.75;;;0.70;;
41219;SDS011;26951;47.338;9.196;2023-12-14T07:19:08;0.57;;;0.57;;
41219;SDS011;26951;47.338;9.196;2023-12-14T07:24:38;0.70;;;0.57;;
41219;SDS011;26951;47.338;9.196;2023-12-14T07:27:22;0.65;;;0.65;;
41219;SDS011;26951;47.338;9.196;2023-12-14T07:30:06;0.50;;;0.50;;
41219;SDS011;26951;47.338;9.196;2023-12-14T07:32:53;0.82;;;0.60;;
41219;SDS011;26951;47.338;9.196;2023-12-14T07:35:38;0.60;;;0.60;;
41219;SDS011;26951;47.338;9.196;2023-12-14T07:38:22;1.17;;;0.90;;
41219;SDS011;26951;47.338;9.196;2023-12-14T07:41:06;0.80;;;0.80;;
41219;SDS011;26951;47.338;9.196;2023-12-14T07:43:50;0.80;;;0.80;;
41219;SDS011;26951;47.338;9.196;2023-12-14T07:46:35;0.95;;;0.85;;
41219;SDS011;26951;47.338;9.196;2023-12-14T07:49:23;0.93;;;0.80;;
41219;SDS011;26951;47.338;9.196;2023-12-14T07:52:07;0.65;;;0.65;;
41219;SDS011;26951;47.338;9.196;2023-12-14T07:54:51;0.80;;;0.80;;
41219;SDS011;26951;47.338;9.196;2023-12-14T07:57:35;1.13;;;0.85;;
41219;SDS011;26951;47.338;9.196;2023-12-14T08:00:19;1.20;;;1.10;;
41219;SDS011;26951;47.338;9.196;2023-12-14T08:03:03;1.02;;;0.98;;
41219;SDS011;26951;47.338;9.196;2023-12-14T08:05:47;0.90;;;0.90;;
41219;SDS011;26951;47.338;9.196;2023-12-14T08:08:32;1.02;;;1.00;;
41219;SDS011;26951;47.338;9.196;2023-12-14T08:11:16;1.20;;;1.10;;
41219;SDS011;26951;47.338;9.196;2023-12-14T08:14:00;1.13;;;1.02;;
41219;SDS011;26951;47.338;9.196;2023-12-14T08:16:44;0.80;;;0.80;;
41219;SDS011;26951;47.338;9.196;2023-12-14T08:19:28;0.70;;;0.70;;
41219;SDS011;26951;47.338;9.196;2023-12-14T08:22:12;1.08;;;0.98;;
41219;SDS011;26951;47.338;9.196;2023-12-14T08:24:58;1.20;;;0.90;;
41219;SDS011;26951;47.338;9.196;2023-12-14T08:27:43;1.10;;;0.95;;
41219;SDS011;26951;47.338;9.196;2023-12-14T08:30:30;0.82;;;0.82;;
41219;SDS011;26951;47.338;9.196;2023-12-14T08:33:14;1.30;;;0.95;;
41219;SDS011;26951;47.338;9.196;2023-12-14T08:35:58;1.00;;;1.00;;
41219;SDS011;26951;47.338;9.196;2023-12-14T08:38:43;2.50;;;1.20;;
41219;SDS011;26951;47.338;9.196;2023-12-14T08:41:27;0.73;;;0.73;;
41219;SDS011;26951;47.338;9.196;2023-12-14T08:44:11;1.10;;;1.02;;
41219;SDS011;26951;47.338;9.196;2023-12-14T08:46:55;0.88;;;0.85;;
41219;SDS011;26951;47.338;9.196;2023-12-14T08:49:39;2.10;;;1.10;;
41219;SDS011;26951;47.338;9.196;2023-12-14T08:52:24;1.17;;;0.93;;
41219;SDS011;26951;47.338;9.196;2023-12-14T08:55:08;0.80;;;0.80;;
41219;SDS011;26951;47.338;9.196;2023-12-14T08:57:52;2.70;;;1.10;;
41219;SDS011;26951;47.338;9.196;2023-12-14T09:00:36;1.30;;;1.10;;
41219;SDS011;26951;47.338;9.196;2023-12-14T09:03:20;1.20;;;1.10;;
41219;SDS011;26951;47.338;9.196;2023-12-14T09:06:04;1.30;;;1.15;;
41219;SDS011;26951;47.338;9.196;2023-12-14T09:08:48;1.38;;;1.10;;
41219;SDS011;26951;47.338;9.196;2023-12-14T09:11:32;1.08;;;0.88;;
41219;SDS011;26951;47.338;9.196;2023-12-14T09:14:18;0.93;;;0.80;;
41219;SDS011;26951;47.338;9.196;2023-12-14T09:17:03;1.38;;;1.00;;
41219;SDS011;26951;47.338;9.196;2023-12-14T09:19:47;2.72;;;0.77;;
41219;SDS011;26951;47.338;9.196;2023-12-14T09:22:31;0.88;;;0.88;;
41219;SDS011;26951;47.338;9.196;2023-12-14T09:25:15;1.00;;;0.90;;
41219;SDS011;26951;47.338;9.196;2023-12-14T09:28:00;1.75;;;1.40;;
41219;SDS011;26951;47.338;9.196;2023-12-14T09:30:44;0.90;;;0.80;;
41219;SDS011;26951;47.338;9.196;2023-12-14T09:33:28;0.88;;;0.80;;
41219;SDS011;26951;47.338;9.196;2023-12-14T09:36:14;0.88;;;0.88;;
41219;SDS011;26951;47.338;9.196;2023-12-14T09:38:58;0.63;;;0.63;;
41219;SDS011;26951;47.338;9.196;2023-12-14T09:41:42;1.05;;;0.90;;
41219;SDS011;26951;47.338;9.196;2023-12-14T09:44:27;1.33;;;1.00;;
41219;SDS011;26951;47.338;9.196;2023-12-14T09:47:12;0.80;;;0.80;;
41219;SDS011;26951;47.338;9.196;2023-12-14T09:49:56;1.10;;;1.00;;
41219;SDS011;26951;47.338;9.196;2023-12-14T09:52:40;0.85;;;0.85;;
41219;SDS011;26951;47.338;9.196;2023-12-14T09:55:28;1.02;;;1.00;;
41219;SDS011;26951;47.338;9.196;2023-12-14T09:58:15;1.25;;;1.15;;
41219;SDS011;26951;47.338;9.196;2023-12-14T10:00:59;1.20;;;1.10;;
41219;SDS011;26951;47.338;9.196;2023-12-14T10:03:47;1.23;;;1.13;;
41219;SDS011;26951;47.338;9.196;2023-12-14T10:06:31;1.30;;;1.20;;
41219;SDS011;26951;47.338;9.196;2023-12-14T10:09:22;2.03;;;1.60;;
41219;SDS011;26951;47.338;9.196;2023-12-14T10:12:07;1.98;;;1.48;;
41219;SDS011;26951;47.338;9.196;2023-12-14T10:15:02;1.30;;;1.20;;
41219;SDS011;26951;47.338;9.196;2023-12-14T10:17:53;1.73;;;1.60;;
41219;SDS011;26951;47.338;9.196;2023-12-14T10:20:38;2.42;;;1.70;;
41219;SDS011;26951;47.338;9.196;2023-12-14T10:23:22;3.08;;;1.55;;
41219;SDS011;26951;47.338;9.196;2023-12-14T10:26:07;2.17;;;1.70;;
41219;SDS011;26951;47.338;9.196;2023-12-14T10:28:52;3.00;;;1.95;;
41219;SDS011;26951;47.338;9.196;2023-12-14T10:31:37;1.95;;;1.67;;
41219;SDS011;26951;47.338;9.196;2023-12-14T10:34:21;2.35;;;1.73;;
41219;SDS011;26951;47.338;9.196;2023-12-14T10:37:05;2.00;;;1.73;;
41219;SDS011;26951;47.338;9.196;2023-12-14T10:39:50;2.70;;;2.03;;
41219;SDS011;26951;47.338;9.196;2023-12-14T10:42:37;2.78;;;2.15;;
41219;SDS011;26951;47.338;9.196;2023-12-14T10:45:29;1.88;;;1.60;;
41219;SDS011;26951;47.338;9.196;2023-12-14T10:48:16;3.17;;;2.00;;
41219;SDS011;26951;47.338;9.196;2023-12-14T10:51:03;2.05;;;1.85;;
41219;SDS011;26951;47.338;9.196;2023-12-14T10:53:49;2.55;;;2.10;;
41219;SDS011;26951;47.338;9.196;2023-12-14T10:56:35;1.90;;;1.70;;
41219;SDS011;26951;47.338;9.196;2023-12-14T10:59:20;2.13;;;1.73;;
41219;SDS011;26951;47.338;9.196;2023-12-14T11:02:07;2.47;;;2.00;;
41219;SDS011;26951;47.338;9.196;2023-12-14T11:04:57;2.10;;;1.90;;
41219;SDS011;26951;47.338;9.196;2023-12-14T11:07:54;2.00;;;1.60;;
41219;SDS011;26951;47.338;9.196;2023-12-14T11:10:53;1.90;;;1.65;;
41219;SDS011;26951;47.338;9.196;2023-12-14T11:13:43;3.05;;;1.83;;
41219;SDS011;26951;47.338;9.196;2023-12-14T11:16:28;2.30;;;1.90;;
41219;SDS011;26951;47.338;9.196;2023-12-14T11:22:09;3.28;;;2.95;;
41219;SDS011;26951;47.338;9.196;2023-12-14T11:24:56;2.08;;;1.77;;
41219;SDS011;26951;47.338;9.196;2023-12-14T11:27:43;2.28;;;2.08;;
41219;SDS011;26951;47.338;9.196;2023-12-14T11:30:28;2.60;;;2.15;;
41219;SDS011;26951;47.338;9.196;2023-12-14T11:33:12;1.92;;;1.73;;
41219;SDS011;26951;47.338;9.196;2023-12-14T11:35:57;1.90;;;1.60;;
41219;SDS011;26951;47.338;9.196;2023-12-14T11:38:42;1.70;;;1.60;;
41219;SDS011;26951;47.338;9.196;2023-12-14T11:41:27;1.98;;;1.73;;
41219;SDS011;26951;47.338;9.196;2023-12-14T11:44:21;2.13;;;1.90;;
41219;SDS011;26951;47.338;9.196;2023-12-14T11:47:06;1.80;;;1.70;;
41219;SDS011;26951;47.338;9.196;2023-12-14T11:49:52;1.70;;;1.55;;
41219;SDS011;26951;47.338;9.196;2023-12-14T11:52:36;2.53;;;1.83;;
41219;SDS011;26951;47.338;9.196;2023-12-14T11:55:21;1.75;;;1.50;;
41219;SDS011;26951;47.338;9.196;2023-12-14T11:58:05;2.47;;;2.00;;
41219;SDS011;26951;47.338;9.196;2023-12-14T12:00:49;2.20;;;2.00;;
41219;SDS011;26951;47.338;9.196;2023-12-14T12:03:33;2.17;;;1.98;;
41219;SDS011;26951;47.338;9.196;2023-12-14T12:06:19;2.42;;;2.22;;
41219;SDS011;26951;47.338;9.196;2023-12-14T12:09:07;2.45;;;2.25;;
41219;SDS011;26951;47.338;9.196;2023-12-14T12:11:54;2.50;;;2.30;;
41219;SDS011;26951;47.338;9.196;2023-12-14T12:14:41;3.38;;;2.70;;
41219;SDS011;26951;47.338;9.196;2023-12-14T12:17:25;3.65;;;2.67;;
41219;SDS011;26951;47.338;9.196;2023-12-14T12:20:10;2.70;;;2.45;;
41219;SDS011;26951;47.338;9.196;2023-12-14T12:22:54;3.45;;;2.50;;
41219;SDS011;26951;47.338;9.196;2023-12-14T12:25:39;2.40;;;2.03;;
41219;SDS011;26951;47.338;9.196;2023-12-14T12:28:23;2.28;;;2.03;;
41219;SDS011;26951;47.338;9.196;2023-12-14T12:31:07;3.08;;;2.40;;
41219;SDS011;26951;47.338;9.196;2023-12-14T12:33:51;2.60;;;2.40;;
41219;SDS011;26951;47.338;9.196;2023-12-14T12:36:36;3.35;;;2.55;;
41219;SDS011;26951;47.338;9.196;2023-12-14T12:39:20;3.45;;;2.60;;
41219;SDS011;26951;47.338;9.196;2023-12-14T12:42:04;2.97;;;2.20;;
41219;SDS011;26951;47.338;9.196;2023-12-14T12:44:49;2.40;;;2.20;;
41219;SDS011;26951;47.338;9.196;2023-12-14T12:47:33;3.10;;;2.70;;
41219;SDS011;26951;47.338;9.196;2023-12-14T12:50:18;2.53;;;2.33;;
41219;SDS011;26951;47.338;9.196;2023-12-14T12:53:02;3.20;;;2.33;;
41219;SDS011;26951;47.338;9.196;2023-12-14T12:55:46;2.88;;;2.40;;
41219;SDS011;26951;47.338;9.196;2023-12-14T12:58:31;2.83;;;2.53;;
41219;SDS011;26951;47.338;9.196;2023-12-14T13:01:15;2.55;;;2.28;;
41219;SDS011;26951;47.338;9.196;2023-12-14T13:03:59;3.10;;;2.30;;
41219;SDS011;26951;47.338;9.196;2023-12-14T13:06:44;3.03;;;2.00;;
41219;SDS011;26951;47.338;9.196;2023-12-14T13:09:28;3.78;;;2.28;;
41219;SDS011;26951;47.338;9.196;2023-12-14T13:12:12;2.17;;;1.98;;
41219;SDS011;26951;47.338;9.196;2023-12-14T13:14:57;3.95;;;2.67;;
41219;SDS011;26951;47.338;9.196;2023-12-14T13:17:41;2.33;;;1.80;;
41219;SDS011;26951;47.338;9.196;2023-12-14T13:20:25;2.53;;;1.75;;
41219;SDS011;26951;47.338;9.196;2023-12-14T13:23:09;1.83;;;1.58;;
41219;SDS011;26951;47.338;9.196;2023-12-14T13:25:53;1.70;;;1.40;;
41219;SDS011;26951;47.338;9.196;2023-12-14T13:28:37;1.25;;;1.13;;
41219;SDS011;26951;47.338;9.196;2023-12-14T13:31:22;1.40;;;1.30;;
41219;SDS011;26951;47.338;9.196;2023-12-14T13:34:06;0.88;;;0.88;;
41219;SDS011;26951;47.338;9.196;2023-12-14T13:36:50;1.33;;;1.23;;
41219;SDS011;26951;47.338;9.196;2023-12-14T13:39:35;1.55;;;1.33;;
41219;SDS011;26951;47.338;9.196;2023-12-14T13:42:21;1.35;;;1.17;;
41219;SDS011;26951;47.338;9.196;2023-12-14T13:45:05;1.30;;;1.20;;
41219;SDS011;26951;47.338;9.196;2023-12-14T13:47:50;0.70;;;0.70;;
41219;SDS011;26951;47.338;9.196;2023-12-14T13:50:34;1.50;;;1.23;;
41219;SDS011;26951;47.338;9.196;2023-12-14T13:53:19;1.10;;;1.00;;
41219;SDS011;26951;47.338;9.196;2023-12-14T13:56:04;1.35;;;1.00;;
41219;SDS011;26951;47.338;9.196;2023-12-14T13:58:48;1.02;;;0.90;;
41219;SDS011;26951;47.338;9.196;2023-12-14T14:01:33;0.80;;;0.80;;
41219;SDS011;26951;47.338;9.196;2023-12-14T14:04:17;0.70;;;0.70;;
41219;SDS011;26951;47.338;9.196;2023-12-14T14:07:01;0.90;;;0.70;;
41219;SDS011;26951;47.338;9.196;2023-12-14T14:09:46;1.23;;;1.10;;
41219;SDS011;26951;47.338;9.196;2023-12-14T14:12:30;1.55;;;0.90;;
41219;SDS011;26951;47.338;9.196;2023-12-14T14:15:14;0.85;;;0.70;;
41219;SDS011;26951;47.338;9.196;2023-12-14T14:17:58;0.80;;;0.70;;
41219;SDS011;26951;47.338;9.196;2023-12-14T14:20:43;0.70;;;0.70;;
41219;SDS011;26951;47.338;9.196;2023-12-14T14:23:28;0.90;;;0.80;;
41219;SDS011;26951;47.338;9.196;2023-12-14T14:26:12;0.70;;;0.70;;
41219;SDS011;26951;47.338;9.196;2023-12-14T14:28:56;0.98;;;0.90;;
41219;SDS011;26951;47.338;9.196;2023-12-14T14:31:45;0.90;;;0.90;;
41219;SDS011;26951;47.338;9.196;2023-12-14T14:34:29;1.80;;;1.45;;
41219;SDS011;26951;47.338;9.196;2023-12-14T14:37:14;1.50;;;1.40;;
41219;SDS011;26951;47.338;9.196;2023-12-14T14:39:58;1.27;;;1.17;;
41219;SDS011;26951;47.338;9.196;2023-12-14T14:42:42;0.80;;;0.80;;
41219;SDS011;26951;47.338;9.196;2023-12-14T14:45:28;1.13;;;0.80;;
41219;SDS011;26951;47.338;9.196;2023-12-14T14:48:12;1.02;;;0.93;;
41219;SDS011;26951;47.338;9.196;2023-12-14T14:50:56;1.45;;;1.35;;
41219;SDS011;26951;47.338;9.196;2023-12-14T14:53:40;1.65;;;1.15;;
41219;SDS011;26951;47.338;9.196;2023-12-14T14:56:26;1.70;;;1.40;;
41219;SDS011;26951;47.338;9.196;2023-12-14T14:59:10;1.15;;;0.93;;
41219;SDS011;26951;47.338;9.196;2023-12-14T15:01:55;1.23;;;1.00;;
41219;SDS011;26951;47.338;9.196;2023-12-14T15:04:39;0.98;;;0.88;;
41219;SDS011;26951;47.338;9.196;2023-12-14T15:07:23;1.73;;;1.20;;
41219;SDS011;26951;47.338;9.196;2023-12-14T15:10:09;1.10;;;0.90;;
41219;SDS011;26951;47.338;9.196;2023-12-14T15:12:54;1.85;;;1.42;;
41219;SDS011;26951;47.338;9.196;2023-12-14T15:15:38;1.30;;;1.20;;
41219;SDS011;26951;47.338;9.196;2023-12-14T15:18:22;1.00;;;0.90;;
41219;SDS011;26951;47.338;9.196;2023-12-14T15:21:09;1.27;;;1.17;;
41219;SDS011;26951;47.338;9.196;2023-12-14T15:23:55;1.00;;;0.90;;
41219;SDS011;26951;47.338;9.196;2023-12-14T15:26:42;1.33;;;0.98;;
41219;SDS011;26951;47.338;9.196;2023-12-14T15:29:27;1.27;;;1.13;;
41219;SDS011;26951;47.338;9.196;2023-12-14T15:32:11;3.15;;;1.83;;
41219;SDS011;26951;47.338;9.196;2023-12-14T15:34:55;3.25;;;2.28;;
41219;SDS011;26951;47.338;9.196;2023-12-14T15:37:40;2.08;;;1.65;;
41219;SDS011;26951;47.338;9.196;2023-12-14T15:40:24;1.50;;;1.40;;
41219;SDS011;26951;47.338;9.196;2023-12-14T15:43:08;2.13;;;1.58;;
41219;SDS011;26951;47.338;9.196;2023-12-14T15:45:52;1.40;;;1.30;;
41219;SDS011;26951;47.338;9.196;2023-12-14T15:48:37;1.95;;;1.75;;
41219;SDS011;26951;47.338;9.196;2023-12-14T15:51:21;1.77;;;1.50;;
41219;SDS011;26951;47.338;9.196;2023-12-14T15:54:05;1.40;;;1.30;;
41219;SDS011;26951;47.338;9.196;2023-12-14T15:56:49;2.22;;;1.65;;
41219;SDS011;26951;47.338;9.196;2023-12-14T15:59:34;2.03;;;1.80;;
41219;SDS011;26951;47.338;9.196;2023-12-14T16:02:18;1.60;;;1.50;;
41219;SDS011;26951;47.338;9.196;2023-12-14T16:05:02;2.15;;;1.70;;
41219;SDS011;26951;47.338;9.196;2023-12-14T16:07:46;2.30;;;1.77;;
41219;SDS011;26951;47.338;9.196;2023-12-14T16:10:30;2.53;;;1.73;;
41219;SDS011;26951;47.338;9.196;2023-12-14T16:13:14;3.70;;;2.40;;
41219;SDS011;26951;47.338;9.196;2023-12-14T16:15:58;2.75;;;2.35;;
41219;SDS011;26951;47.338;9.196;2023-12-14T16:18:43;2.60;;;2.28;;
41219;SDS011;26951;47.338;9.196;2023-12-14T16:21:27;5.25;;;2.95;;
41219;SDS011;26951;47.338;9.196;2023-12-14T16:24:13;4.60;;;4.00;;
41219;SDS011;26951;47.338;9.196;2023-12-14T16:26:57;6.38;;;4.57;;
41219;SDS011;26951;47.338;9.196;2023-12-14T16:29:42;4.68;;;4.05;;
41219;SDS011;26951;47.338;9.196;2023-12-14T16:32:29;3.30;;;2.97;;
41219;SDS011;26951;47.338;9.196;2023-12-14T16:35:13;2.83;;;2.53;;
41219;SDS011;26951;47.338;9.196;2023-12-14T16:37:59;7.28;;;4.45;;
41219;SDS011;26951;47.338;9.196;2023-12-14T16:40:43;8.23;;;5.63;;
41219;SDS011;26951;47.338;9.196;2023-12-14T16:43:27;7.88;;;5.18;;